createdAt,value
2018-10-11T00:00:31.924Z,75.81
2018-10-11T00:01:32.152Z,75.05
2018-10-11T00:02:32.383Z,75.43
2018-10-11T00:03:32.610Z,75.53
2018-10-11T00:04:32.836Z,74.96
2018-10-11T00:05:33.061Z,74.38
2018-10-11T00:06:33.288Z,74.77
2018-10-11T00:07:33.520Z,75.15
2018-10-11T00:08:33.748Z,74.86
2018-10-11T00:09:33.973Z,75.24
2018-10-11T00:10:34.203Z,75.43
2018-10-11T00:11:34.430Z,75.91
2018-10-11T00:12:34.657Z,75.62
2018-10-11T00:13:34.885Z,74.19
2018-10-11T00:14:35.119Z,74.10
2018-10-11T00:15:35.343Z,74.10
2018-10-11T00:16:35.568Z,74.01
2018-10-11T00:17:35.794Z,74.01
2018-10-11T00:18:36.026Z,74.10
2018-10-11T00:19:36.253Z,73.52
2018-10-11T00:20:36.480Z,73.81
2018-10-11T00:21:36.710Z,73.33
2018-10-11T00:22:36.936Z,73.81
2018-10-11T00:23:37.163Z,73.62
2018-10-11T00:24:37.391Z,73.05
2018-10-11T00:25:37.620Z,73.14
2018-10-11T00:26:37.845Z,72.96
2018-10-11T00:27:38.075Z,73.91
2018-10-11T00:28:38.301Z,74.10
2018-10-11T00:29:38.527Z,74.29
2018-10-11T00:30:38.782Z,74.29
2018-10-11T00:31:38.980Z,75.30
2018-10-11T00:32:39.205Z,75.30
2018-10-11T00:33:39.432Z,75.81
2018-10-11T00:34:39.660Z,75.81
2018-10-11T00:35:39.887Z,75.43
2018-10-11T00:36:40.116Z,75.15
2018-10-11T00:37:40.343Z,73.77
2018-10-11T00:38:40.571Z,73.81
2018-10-11T00:39:40.796Z,73.87
2018-10-11T00:40:41.023Z,73.01
2018-10-11T00:41:41.251Z,73.11
2018-10-11T00:42:41.476Z,73.96
2018-10-11T00:43:41.703Z,74.06
2018-10-11T00:44:41.933Z,73.96
2018-10-11T00:45:42.157Z,74.16
2018-10-11T00:46:42.387Z,72.92
2018-10-11T00:47:42.614Z,72.44
2018-10-11T00:48:42.839Z,72.92
2018-10-11T00:49:43.068Z,74.16
2018-10-11T00:50:43.296Z,73.68
2018-10-11T00:51:43.523Z,72.82
2018-10-11T00:52:43.751Z,72.63
2018-10-11T00:53:43.978Z,71.77
2018-10-11T00:54:44.204Z,71.96
2018-10-11T00:55:44.428Z,72.72
2018-10-11T00:56:44.653Z,72.53
2018-10-11T00:57:44.880Z,72.06
2018-10-11T00:58:45.109Z,71.96
2018-10-11T00:59:45.333Z,72.63
2018-10-11T01:00:45.562Z,74.06
2018-10-11T01:01:45.790Z,74.44
2018-10-11T01:02:46.020Z,75.49
2018-10-11T01:03:46.245Z,76.16
2018-10-11T01:04:46.469Z,76.35
2018-10-11T01:05:46.697Z,75.68
2018-10-11T01:06:46.925Z,76.16
2018-10-11T01:07:47.159Z,76.25
2018-10-11T01:08:47.376Z,76.25
2018-10-11T01:09:47.628Z,76.64
2018-10-11T01:10:47.830Z,76.54
2018-10-11T01:11:48.057Z,76.54
2018-10-11T01:12:48.285Z,76.25
2018-10-11T01:13:48.513Z,76.82
2018-10-11T01:14:48.745Z,76.44
2018-10-11T01:15:48.971Z,76.54
2018-10-11T01:16:49.185Z,76.64
2018-10-11T01:17:49.428Z,75.87
2018-10-11T01:18:49.657Z,75.59
2018-10-11T01:19:49.884Z,74.25
2018-10-11T01:20:50.111Z,74.92
2018-10-11T01:21:50.344Z,74.35
2018-10-11T01:22:50.568Z,73.58
2018-10-11T01:23:50.853Z,73.77
2018-10-11T01:24:51.024Z,73.77
2018-10-11T01:25:51.250Z,74.35
2018-10-11T01:26:51.477Z,74.44
2018-10-11T01:27:51.706Z,74.54
2018-10-11T01:28:51.933Z,73.87
2018-10-11T01:29:52.288Z,74.25
2018-10-11T01:30:52.392Z,73.68
2018-10-11T01:31:52.617Z,73.96
2018-10-11T01:32:52.844Z,73.39
2018-10-11T01:33:53.074Z,73.58
2018-10-11T01:34:53.300Z,72.72
2018-10-11T01:35:53.530Z,73.77
2018-10-11T01:36:53.756Z,73.77
2018-10-11T01:37:53.985Z,73.01
2018-10-11T01:38:54.296Z,73.58
2018-10-11T01:39:54.443Z,74.02
2018-10-11T01:40:54.669Z,74.06
2018-10-11T01:41:54.894Z,75.49
2018-10-11T01:42:55.119Z,75.96
2018-10-11T01:43:55.349Z,76.54
2018-10-11T01:44:55.574Z,76.82
2018-10-11T01:45:55.807Z,76.73
2018-10-11T01:46:56.030Z,76.44
2018-10-11T01:47:56.257Z,75.20
2018-10-11T01:48:56.481Z,73.83
2018-10-11T01:49:56.711Z,74.73
2018-10-11T01:50:56.939Z,74.16
2018-10-11T01:51:57.162Z,73.21
2018-10-11T01:52:57.387Z,73.45
2018-10-11T01:53:57.614Z,72.78
2018-10-11T01:54:57.843Z,72.88
2018-10-11T01:55:58.083Z,72.78
2018-10-11T01:56:58.297Z,72.60
2018-10-11T01:57:58.528Z,72.82
2018-10-11T01:58:58.754Z,72.16
2018-10-11T01:59:58.980Z,72.16
2018-10-11T02:00:59.206Z,72.25
2018-10-11T02:01:59.436Z,71.96
2018-10-11T02:02:59.664Z,72.63
2018-10-11T02:03:59.893Z,72.72
2018-10-11T02:05:00.119Z,73.96
2018-10-11T02:06:00.346Z,73.49
2018-10-11T02:07:00.572Z,73.96
2018-10-11T02:08:00.801Z,74.73
2018-10-11T02:09:01.028Z,75.01
2018-10-11T02:10:01.253Z,75.78
2018-10-11T02:11:01.481Z,76.16
2018-10-11T02:12:01.707Z,75.59
2018-10-11T02:13:01.935Z,74.25
2018-10-11T02:14:02.163Z,73.77
2018-10-11T02:15:02.389Z,73.96
2018-10-11T02:16:02.622Z,72.72
2018-10-11T02:17:02.844Z,73.01
2018-10-11T02:18:03.070Z,72.44
2018-10-11T02:19:03.295Z,73.11
2018-10-11T02:20:03.525Z,73.77
2018-10-11T02:21:03.749Z,73.21
2018-10-11T02:22:03.981Z,73.77
2018-10-11T02:23:04.203Z,73.58
2018-10-11T02:24:04.432Z,74.50
2018-10-11T02:25:04.661Z,73.93
2018-10-11T02:26:04.888Z,73.87
2018-10-11T02:27:05.115Z,74.31
2018-10-11T02:28:05.339Z,74.02
2018-10-11T02:29:05.569Z,74.02
2018-10-11T02:30:05.799Z,73.55
2018-10-11T02:31:06.032Z,73.93
2018-10-11T02:32:06.287Z,73.93
2018-10-11T02:33:06.483Z,74.02
2018-10-11T02:34:06.711Z,74.50
2018-10-11T02:35:06.937Z,74.21
2018-10-11T02:36:07.167Z,74.40
2018-10-11T02:37:07.393Z,74.02
2018-10-11T02:38:07.616Z,74.21
2018-10-11T02:39:07.849Z,73.65
2018-10-11T02:40:08.075Z,73.55
2018-10-11T02:41:08.298Z,73.45
2018-10-11T02:42:08.524Z,73.74
2018-10-11T02:43:08.756Z,74.60
2018-10-11T02:44:08.981Z,75.07
2018-10-11T02:45:09.209Z,74.69
2018-10-11T02:46:09.438Z,74.02
2018-10-11T02:47:09.662Z,73.45
2018-10-11T02:48:09.895Z,73.65
2018-10-11T02:49:10.124Z,73.83
2018-10-11T02:50:10.349Z,73.93
2018-10-11T02:51:10.578Z,73.83
2018-10-11T02:52:10.805Z,73.07
2018-10-11T02:53:11.034Z,73.74
2018-10-11T02:54:11.264Z,72.78
2018-10-11T02:55:11.487Z,72.88
2018-10-11T02:56:11.710Z,73.26
2018-10-11T02:57:11.937Z,73.74
2018-10-11T02:58:12.162Z,73.74
2018-10-11T02:59:12.392Z,74.21
2018-10-11T03:00:12.615Z,74.40
2018-10-11T03:01:12.843Z,75.07
2018-10-11T03:02:13.067Z,75.26
2018-10-11T03:03:13.297Z,75.26
2018-10-11T03:04:13.527Z,75.26
2018-10-11T03:05:13.754Z,74.40
2018-10-11T03:06:13.982Z,73.83
2018-10-11T03:07:14.206Z,73.51
2018-10-11T03:08:14.436Z,72.75
2018-10-11T03:09:14.665Z,72.65
2018-10-11T03:10:14.889Z,72.65
2018-10-11T03:11:15.117Z,72.78
2018-10-11T03:12:15.343Z,72.94
2018-10-11T03:13:15.569Z,72.88
2018-10-11T03:14:15.804Z,73.61
2018-10-11T03:15:16.021Z,73.61
2018-10-11T03:16:16.251Z,75.32
2018-10-11T03:17:16.478Z,75.42
2018-10-11T03:18:16.707Z,75.23
2018-10-11T03:19:16.933Z,76.08
2018-10-11T03:20:17.158Z,75.32
2018-10-11T03:21:17.391Z,75.79
2018-10-11T03:22:17.615Z,75.42
2018-10-11T03:23:17.844Z,75.60
2018-10-11T03:24:18.136Z,75.70
2018-10-11T03:25:18.300Z,75.42
2018-10-11T03:26:18.525Z,74.84
2018-10-11T03:27:18.753Z,74.65
2018-10-11T03:28:18.980Z,74.18
2018-10-11T03:29:19.207Z,74.18
2018-10-11T03:30:19.437Z,73.70
2018-10-11T03:31:19.663Z,73.89
2018-10-11T03:32:19.892Z,74.56
2018-10-11T03:33:20.116Z,74.65
2018-10-11T03:34:20.345Z,75.32
2018-10-11T03:35:20.573Z,75.51
2018-10-11T03:36:20.801Z,75.42
2018-10-11T03:37:21.028Z,74.27
2018-10-11T03:38:21.256Z,73.61
2018-10-11T03:39:21.481Z,72.85
2018-10-11T03:40:21.709Z,72.75
2018-10-11T03:41:21.938Z,72.85
2018-10-11T03:42:22.169Z,73.51
2018-10-11T03:43:22.393Z,72.75
2018-10-11T03:44:22.619Z,72.27
2018-10-11T03:45:22.845Z,72.65
2018-10-11T03:46:23.119Z,72.94
2018-10-11T03:47:23.298Z,72.94
2018-10-11T03:48:23.526Z,73.22
2018-10-11T03:49:23.754Z,73.89
2018-10-11T03:50:23.985Z,74.37
2018-10-11T03:51:24.206Z,74.18
2018-10-11T03:52:24.434Z,74.27
2018-10-11T03:53:24.666Z,73.99
2018-10-11T03:54:24.892Z,73.89
2018-10-11T03:55:25.122Z,73.61
2018-10-11T03:56:25.345Z,73.89
2018-10-11T03:57:25.574Z,73.70
2018-10-11T03:58:25.800Z,73.80
2018-10-11T03:59:26.030Z,73.89
2018-10-11T04:00:26.254Z,73.41
2018-10-11T04:01:26.480Z,73.89
2018-10-11T04:02:26.709Z,73.61
2018-10-11T04:03:26.935Z,73.89
2018-10-11T04:04:27.162Z,74.46
2018-10-11T04:05:27.390Z,75.04
2018-10-11T04:06:27.614Z,75.04
2018-10-11T04:07:27.852Z,76.08
2018-10-11T04:08:28.070Z,75.04
2018-10-11T04:09:28.296Z,75.32
2018-10-11T04:10:28.525Z,74.94
2018-10-11T04:11:28.752Z,75.23
2018-10-11T04:12:28.983Z,75.42
2018-10-11T04:13:29.209Z,75.89
2018-10-11T04:14:29.439Z,75.23
2018-10-11T04:15:29.717Z,75.51
2018-10-11T04:16:29.891Z,75.60
2018-10-11T04:17:30.123Z,75.89
2018-10-11T04:18:30.348Z,75.70
2018-10-11T04:19:30.574Z,75.89
2018-10-11T04:20:30.800Z,76.18
2018-10-11T04:21:31.028Z,75.51
2018-10-11T04:22:31.253Z,74.56
2018-10-11T04:23:31.482Z,74.27
2018-10-11T04:24:31.709Z,73.95
2018-10-11T04:25:31.937Z,73.80
2018-10-11T04:26:32.163Z,74.37
2018-10-11T04:27:32.389Z,73.89
2018-10-11T04:28:32.620Z,73.70
2018-10-11T04:29:32.853Z,72.65
2018-10-11T04:30:33.073Z,72.08
2018-10-11T04:31:33.300Z,72.27
2018-10-11T04:32:33.523Z,72.75
2018-10-11T04:33:33.753Z,73.57
2018-10-11T04:34:33.983Z,73.80
2018-10-11T04:35:34.208Z,74.27
2018-10-11T04:36:34.434Z,74.75
2018-10-11T04:37:34.680Z,74.33
2018-10-11T04:38:34.886Z,73.85
2018-10-11T04:39:35.112Z,73.57
2018-10-11T04:40:35.339Z,72.81
2018-10-11T04:41:35.611Z,72.62
2018-10-11T04:42:35.803Z,73.85
2018-10-11T04:43:36.019Z,74.90
2018-10-11T04:44:36.247Z,75.19
2018-10-11T04:45:36.473Z,74.99
2018-10-11T04:46:36.698Z,74.04
2018-10-11T04:47:36.926Z,74.33
2018-10-11T04:48:37.154Z,74.90
2018-10-11T04:49:37.385Z,75.85
2018-10-11T04:50:37.608Z,75.57
2018-10-11T04:51:37.838Z,75.38
2018-10-11T04:52:38.061Z,75.85
2018-10-11T04:53:38.314Z,75.57
2018-10-11T04:54:38.515Z,76.14
2018-10-11T04:55:38.744Z,76.71
2018-10-11T04:56:38.971Z,75.85
2018-10-11T04:57:39.201Z,75.05
2018-10-11T04:58:39.428Z,74.99
2018-10-11T04:59:39.658Z,74.80
2018-10-11T05:00:39.881Z,75.38
2018-10-11T05:01:40.106Z,75.47
2018-10-11T05:02:40.331Z,75.28
2018-10-11T05:03:40.554Z,75.28
2018-10-11T05:04:40.783Z,75.28
2018-10-11T05:05:41.007Z,74.33
2018-10-11T05:06:41.234Z,73.85
2018-10-11T05:07:41.461Z,73.38
2018-10-11T05:08:41.687Z,73.19
2018-10-11T05:09:41.913Z,73.38
2018-10-11T05:10:42.138Z,74.04
2018-10-11T05:11:42.366Z,73.28
2018-10-11T05:12:42.593Z,73.66
2018-10-11T05:13:42.819Z,74.04
2018-10-11T05:14:43.061Z,74.71
2018-10-11T05:15:43.313Z,75.19
2018-10-11T05:16:43.538Z,75.47
2018-10-11T05:17:43.764Z,75.19
2018-10-11T05:18:43.992Z,74.14
2018-10-11T05:19:44.220Z,74.33
2018-10-11T05:20:44.448Z,74.04
2018-10-11T05:21:44.675Z,74.24
2018-10-11T05:22:44.902Z,74.80
2018-10-11T05:23:45.129Z,75.76
2018-10-11T05:24:45.353Z,76.04
2018-10-11T05:25:45.581Z,76.52
2018-10-11T05:26:45.807Z,76.52
2018-10-11T05:27:46.033Z,76.42
2018-10-11T05:28:46.259Z,75.28
2018-10-11T05:29:46.490Z,75.28
2018-10-11T05:30:46.714Z,75.57
2018-10-11T05:31:46.941Z,75.85
2018-10-11T05:32:47.170Z,75.47
2018-10-11T05:33:47.394Z,75.57
2018-10-11T05:34:47.626Z,75.85
2018-10-11T05:35:47.854Z,76.33
2018-10-11T05:36:48.078Z,76.81
2018-10-11T05:37:48.304Z,76.61
2018-10-11T05:38:48.532Z,75.76
2018-10-11T05:39:48.760Z,74.71
2018-10-11T05:40:48.986Z,75.19
2018-10-11T05:41:49.220Z,75.38
2018-10-11T05:42:49.442Z,75.28
2018-10-11T05:43:49.669Z,75.57
2018-10-11T05:44:49.893Z,75.76
2018-10-11T05:45:50.119Z,75.57
2018-10-11T05:46:50.343Z,75.57
2018-10-11T05:47:50.569Z,76.14
2018-10-11T05:48:50.797Z,75.38
2018-10-11T05:49:51.025Z,75.38
2018-10-11T05:50:51.253Z,75.38
2018-10-11T05:51:51.481Z,75.47
2018-10-11T05:52:51.709Z,75.28
2018-10-11T05:53:51.935Z,75.67
2018-10-11T05:54:52.163Z,74.71
2018-10-11T05:55:52.391Z,75.19
2018-10-11T05:56:52.617Z,75.47
2018-10-11T05:57:52.840Z,76.04
2018-10-11T05:58:53.071Z,75.47
2018-10-11T05:59:53.300Z,75.28
2018-10-11T06:00:53.525Z,75.95
2018-10-11T06:01:53.753Z,75.28
2018-10-11T06:02:53.983Z,75.57
2018-10-11T06:03:54.208Z,74.80
2018-10-11T06:04:54.437Z,74.80
2018-10-11T06:05:54.662Z,75.67
2018-10-11T06:06:54.892Z,75.28
2018-10-11T06:07:55.119Z,76.90
2018-10-11T06:08:55.343Z,77.00
2018-10-11T06:09:55.573Z,77.76
2018-10-11T06:10:55.799Z,77.95
2018-10-11T06:11:56.034Z,77.95
2018-10-11T06:12:56.251Z,77.66
2018-10-11T06:13:56.477Z,77.95
2018-10-11T06:14:56.704Z,77.95
2018-10-11T06:15:56.932Z,78.17
2018-10-11T06:16:57.160Z,78.37
2018-10-11T06:17:57.486Z,78.37
2018-10-11T06:18:57.610Z,78.75
2018-10-11T06:19:57.837Z,78.46
2018-10-11T06:20:58.074Z,78.46
2018-10-11T06:21:58.290Z,79.03
2018-10-11T06:22:58.525Z,78.85
2018-10-11T06:23:58.746Z,79.22
2018-10-11T06:24:58.976Z,79.41
2018-10-11T06:25:59.202Z,79.03
2018-10-11T06:26:59.433Z,79.03
2018-10-11T06:27:59.660Z,79.03
2018-10-11T06:28:59.885Z,79.60
2018-10-11T06:30:00.112Z,79.89
2018-10-11T06:31:00.340Z,79.03
2018-10-11T06:32:00.583Z,79.70
2018-10-11T06:33:00.796Z,79.60
2018-10-11T06:34:01.024Z,79.60
2018-10-11T06:35:01.250Z,80.31
2018-10-11T06:36:01.533Z,80.12
2018-10-11T06:37:01.709Z,79.32
2018-10-11T06:38:01.933Z,78.37
2018-10-11T06:39:02.160Z,79.83
2018-10-11T06:40:02.390Z,79.55
2018-10-11T06:41:02.613Z,79.93
2018-10-11T06:42:02.857Z,78.94
2018-10-11T06:43:03.070Z,79.07
2018-10-11T06:44:03.303Z,79.03
2018-10-11T06:45:03.526Z,78.78
2018-10-11T06:46:03.754Z,79.46
2018-10-11T06:47:03.979Z,79.74
2018-10-11T06:48:04.207Z,79.83
2018-10-11T06:49:04.434Z,79.93
2018-10-11T06:50:04.696Z,79.83
2018-10-11T06:51:04.888Z,80.31
2018-10-11T06:52:05.112Z,80.92
2018-10-11T06:53:05.337Z,81.97
2018-10-11T06:54:05.564Z,81.46
2018-10-11T06:55:05.790Z,81.93
2018-10-11T06:56:06.034Z,81.88
2018-10-11T06:57:06.243Z,82.26
2018-10-11T06:58:06.478Z,82.07
2018-10-11T06:59:06.699Z,83.45
2018-10-11T07:00:06.928Z,83.02
2018-10-11T07:01:07.153Z,81.74
2018-10-11T07:02:07.381Z,82.45
2018-10-11T07:03:07.610Z,83.02
2018-10-11T07:04:07.837Z,82.64
2018-10-11T07:05:08.061Z,83.02
2018-10-11T07:06:08.294Z,83.31
2018-10-11T07:07:08.519Z,83.78
2018-10-11T07:08:08.749Z,84.55
2018-10-11T07:09:08.978Z,84.26
2018-10-11T07:10:09.199Z,84.92
2018-10-11T07:11:09.426Z,85.31
2018-10-11T07:12:09.657Z,83.69
2018-10-11T07:13:09.884Z,83.97
2018-10-11T07:14:10.111Z,83.31
2018-10-11T07:15:10.337Z,84.16
2018-10-11T07:16:10.566Z,83.92
2018-10-11T07:17:10.793Z,84.40
2018-10-11T07:18:11.018Z,83.88
2018-10-11T07:19:11.304Z,82.07
2018-10-11T07:20:11.481Z,82.07
2018-10-11T07:21:11.701Z,83.12
2018-10-11T07:22:11.929Z,81.59
2018-10-11T07:23:12.156Z,81.78
2018-10-11T07:24:12.385Z,82.49
2018-10-11T07:25:12.613Z,83.64
2018-10-11T07:26:12.842Z,84.11
2018-10-11T07:27:13.069Z,84.30
2018-10-11T07:28:13.296Z,84.59
2018-10-11T07:29:13.524Z,83.64
2018-10-11T07:30:13.753Z,83.06
2018-10-11T07:31:13.978Z,82.87
2018-10-11T07:32:14.211Z,83.06
2018-10-11T07:33:14.436Z,81.54
2018-10-11T07:34:14.669Z,81.06
2018-10-11T07:35:14.952Z,80.77
2018-10-11T07:36:15.124Z,81.25
2018-10-11T07:37:15.353Z,81.82
2018-10-11T07:38:15.583Z,82.01
2018-10-11T07:39:15.811Z,80.68
2018-10-11T07:40:16.057Z,80.87
2018-10-11T07:41:16.266Z,80.77
2018-10-11T07:42:16.490Z,81.54
2018-10-11T07:43:16.720Z,80.96
2018-10-11T07:44:16.947Z,81.10
2018-10-11T07:45:17.175Z,80.81
2018-10-11T07:46:17.403Z,81.29
2018-10-11T07:47:17.689Z,82.72
2018-10-11T07:48:17.859Z,84.16
2018-10-11T07:49:18.087Z,85.15
2018-10-11T07:50:18.315Z,85.44
2018-10-11T07:51:18.548Z,86.20
2018-10-11T07:52:18.773Z,86.49
2018-10-11T07:53:19.006Z,86.20
2018-10-11T07:54:19.229Z,87.10
2018-10-11T07:55:19.468Z,87.10
2018-10-11T07:56:19.710Z,87.58
2018-10-11T07:57:19.938Z,87.48
2018-10-11T07:58:20.165Z,87.58
2018-10-11T07:59:20.405Z,87.10
2018-10-11T08:00:20.621Z,87.58
2018-10-11T08:01:20.893Z,87.29
2018-10-11T08:02:21.080Z,87.48
2018-10-11T08:03:21.312Z,87.68
2018-10-11T08:04:21.539Z,87.01
2018-10-11T08:05:21.768Z,88.34
2018-10-11T08:06:22.000Z,88.20
2018-10-11T08:07:22.300Z,87.91
2018-10-11T08:08:22.521Z,88.48
2018-10-11T08:09:22.686Z,88.29
2018-10-11T08:10:23.007Z,88.68
2018-10-11T08:11:23.176Z,88.29
2018-10-11T08:12:23.377Z,86.34
2018-10-11T08:13:23.624Z,87.53
2018-10-11T08:14:23.834Z,87.62
2018-10-11T08:15:24.062Z,88.58
2018-10-11T08:16:24.359Z,88.58
2018-10-11T08:17:24.789Z,88.68
2018-10-11T08:18:24.749Z,88.29
2018-10-11T08:19:25.152Z,88.72
2018-10-11T08:20:25.254Z,88.43
2018-10-11T08:21:25.449Z,88.91
2018-10-11T08:22:25.663Z,88.72
2018-10-11T08:23:25.891Z,88.81
2018-10-11T08:24:26.169Z,88.62
2018-10-11T08:25:26.595Z,89.58
2018-10-11T08:26:27.010Z,90.44
2018-10-11T08:27:26.812Z,89.77
2018-10-11T08:28:27.039Z,89.53
2018-10-11T08:29:27.270Z,89.62
2018-10-11T08:30:27.516Z,88.76
2018-10-11T08:31:27.758Z,89.53
2018-10-11T08:32:28.051Z,89.62
2018-10-11T08:33:28.183Z,89.81
2018-10-11T08:34:28.413Z,89.81
2018-10-11T08:35:28.643Z,89.62
2018-10-11T08:36:28.877Z,89.91
2018-10-11T08:37:29.120Z,90.39
2018-10-11T08:38:29.394Z,90.30
2018-10-11T08:39:29.562Z,90.87
2018-10-11T08:40:29.792Z,90.82
2018-10-11T08:41:30.020Z,90.24
2018-10-11T08:42:30.247Z,90.91
2018-10-11T08:43:30.518Z,90.44
2018-10-11T08:44:30.708Z,90.72
2018-10-11T08:45:30.939Z,90.44
2018-10-11T08:46:31.164Z,91.05
2018-10-11T08:47:31.394Z,91.25
2018-10-11T08:48:31.625Z,91.53
2018-10-11T08:49:31.853Z,91.53
2018-10-11T08:50:32.116Z,92.21
2018-10-11T08:51:32.311Z,92.49
2018-10-11T08:52:32.540Z,91.67
2018-10-11T08:53:32.834Z,91.82
2018-10-11T08:54:32.997Z,93.02
2018-10-11T08:55:33.344Z,93.11
2018-10-11T08:56:33.460Z,92.92
2018-10-11T08:57:33.686Z,92.63
2018-10-11T08:58:33.921Z,93.30
2018-10-11T08:59:34.178Z,92.44
2018-10-11T09:00:34.380Z,93.11
2018-10-11T09:01:34.608Z,92.73
2018-10-11T09:02:34.838Z,93.35
2018-10-11T09:03:35.203Z,93.54
2018-10-11T09:04:35.298Z,93.93
2018-10-11T09:05:35.524Z,93.16
2018-10-11T09:06:35.755Z,93.35
2018-10-11T09:07:35.989Z,93.35
2018-10-11T09:08:36.211Z,94.12
2018-10-11T09:09:36.512Z,94.69
2018-10-11T09:10:38.449Z,94.02
2018-10-11T09:11:36.907Z,93.93
2018-10-11T09:12:37.138Z,94.17
2018-10-11T09:13:37.366Z,94.07
2018-10-11T09:14:37.601Z,94.17
2018-10-11T09:15:37.829Z,94.45
2018-10-11T09:16:38.059Z,94.74
2018-10-11T09:17:38.292Z,93.97
2018-10-11T09:18:38.518Z,94.93
2018-10-11T09:19:38.772Z,94.74
2018-10-11T09:20:38.979Z,95.07
2018-10-11T09:21:39.208Z,95.17
2018-10-11T09:22:39.436Z,94.69
2018-10-11T09:23:39.666Z,94.69
2018-10-11T09:24:39.896Z,95.55
2018-10-11T09:25:40.135Z,94.98
2018-10-11T09:26:40.356Z,95.36
2018-10-11T09:27:40.598Z,94.79
2018-10-11T09:28:40.828Z,95.36
2018-10-11T09:29:41.052Z,95.36
2018-10-11T09:30:41.371Z,94.98
2018-10-11T09:31:41.514Z,95.60
2018-10-11T09:32:41.761Z,95.31
2018-10-11T09:33:41.991Z,95.50
2018-10-11T09:34:42.223Z,95.50
2018-10-11T09:35:42.451Z,95.41
2018-10-11T09:36:42.685Z,94.74
2018-10-11T09:37:42.913Z,94.78
2018-10-11T09:38:43.143Z,94.69
2018-10-11T09:39:43.373Z,95.07
2018-10-11T09:40:43.603Z,94.78
2018-10-11T09:41:43.834Z,94.69
2018-10-11T09:42:44.063Z,94.98
2018-10-11T09:43:44.295Z,94.69
2018-10-11T09:44:44.526Z,95.07
2018-10-11T09:45:44.758Z,95.65
2018-10-11T09:46:44.990Z,94.98
2018-10-11T09:47:45.228Z,94.98
2018-10-11T09:48:45.465Z,94.98
2018-10-11T09:49:45.681Z,94.88
2018-10-11T09:50:45.916Z,94.59
2018-10-11T09:51:46.144Z,93.54
2018-10-11T09:52:46.375Z,94.16
2018-10-11T09:53:46.609Z,94.31
2018-10-11T09:54:46.861Z,94.73
2018-10-11T09:55:47.071Z,94.93
2018-10-11T09:56:47.298Z,94.93
2018-10-11T09:57:47.534Z,95.12
2018-10-11T09:58:47.778Z,95.12
2018-10-11T09:59:48.008Z,95.21
2018-10-11T10:00:48.240Z,95.40
2018-10-11T10:01:48.470Z,94.93
2018-10-11T10:02:48.702Z,95.12
2018-10-11T10:03:48.930Z,94.88
2018-10-11T10:04:49.157Z,94.83
2018-10-11T10:05:49.393Z,94.59
2018-10-11T10:06:49.619Z,93.24
2018-10-11T10:07:49.853Z,93.63
2018-10-11T10:08:50.083Z,92.96
2018-10-11T10:09:50.331Z,93.05
2018-10-11T10:10:50.546Z,93.10
2018-10-11T10:11:51.029Z,92.47
2018-10-11T10:12:51.006Z,92.13
2018-10-11T10:13:51.236Z,90.59
2018-10-11T10:14:51.467Z,91.36
2018-10-11T10:15:51.699Z,90.12
2018-10-11T10:16:51.932Z,89.06
2018-10-11T10:17:52.155Z,89.54
2018-10-11T10:18:52.399Z,90.50
2018-10-11T10:19:52.633Z,90.79
2018-10-11T10:20:52.859Z,90.12
2018-10-11T10:21:53.089Z,89.25
2018-10-11T10:22:53.316Z,87.90
2018-10-11T10:23:53.553Z,87.95
2018-10-11T10:24:53.785Z,87.04
2018-10-11T10:25:54.020Z,86.56
2018-10-11T10:26:54.283Z,87.23
2018-10-11T10:27:54.478Z,86.69
2018-10-11T10:28:54.709Z,87.08
2018-10-11T10:29:54.944Z,85.83
2018-10-11T10:30:55.171Z,84.39
2018-10-11T10:31:55.401Z,84.87
2018-10-11T10:32:55.633Z,84.00
2018-10-11T10:33:55.867Z,83.62
2018-10-11T10:34:56.096Z,82.75
2018-10-11T10:35:56.330Z,84.10
2018-10-11T10:36:56.559Z,82.85
2018-10-11T10:37:56.789Z,82.75
2018-10-11T10:38:57.021Z,82.17
2018-10-11T10:39:57.323Z,81.70
2018-10-11T10:40:57.482Z,80.10
2018-10-11T10:41:57.715Z,79.71
2018-10-11T10:42:57.952Z,80.10
2018-10-11T10:43:58.180Z,79.71
2018-10-11T10:44:58.410Z,79.28
2018-10-11T10:45:58.639Z,78.03
2018-10-11T10:46:58.873Z,77.26
2018-10-11T10:47:59.102Z,78.13
2018-10-11T10:48:59.401Z,80.44
2018-10-11T10:49:59.568Z,79.90
2018-10-11T10:50:59.800Z,79.61
2018-10-11T10:52:00.031Z,79.13
2018-10-11T10:53:00.264Z,80.00
2018-10-11T10:54:00.494Z,79.90
2018-10-11T10:55:00.725Z,82.31
2018-10-11T10:56:00.974Z,84.05
2018-10-11T10:57:01.220Z,83.85
2018-10-11T10:58:01.452Z,81.25
2018-10-11T10:59:01.685Z,80.68
2018-10-11T11:00:01.924Z,77.78
2018-10-11T11:01:02.149Z,79.52
2018-10-11T11:02:02.377Z,78.59
2018-10-11T11:03:02.625Z,77.98
2018-10-11T11:04:02.873Z,77.21
2018-10-11T11:05:03.081Z,76.67
2018-10-11T11:06:03.313Z,75.99
2018-10-11T11:07:03.544Z,75.09
2018-10-11T11:08:03.786Z,75.86
2018-10-11T11:09:04.021Z,75.86
2018-10-11T11:10:04.251Z,77.06
2018-10-11T11:11:04.493Z,81.77
2018-10-11T11:12:04.710Z,78.79
2018-10-11T11:13:04.951Z,80.14
2018-10-11T11:14:05.173Z,78.31
2018-10-11T11:15:05.407Z,76.96
2018-10-11T11:16:05.639Z,77.34
2018-10-11T11:17:05.887Z,77.06
2018-10-11T11:18:06.108Z,75.90
2018-10-11T11:19:06.338Z,75.80
2018-10-11T11:20:06.570Z,78.31
2018-10-11T11:21:06.800Z,77.06
2018-10-11T11:22:07.036Z,76.32
2018-10-11T11:23:07.270Z,76.42
2018-10-11T11:24:07.509Z,75.74
2018-10-11T11:25:07.750Z,73.43
2018-10-11T11:26:07.972Z,72.85
2018-10-11T11:27:08.204Z,76.51
2018-10-11T11:28:08.439Z,73.68
2018-10-11T11:29:08.670Z,72.05
2018-10-11T11:30:08.904Z,71.31
2018-10-11T11:31:09.140Z,72.08
2018-10-11T11:32:09.363Z,71.60
2018-10-11T11:33:09.596Z,72.37
2018-10-11T11:34:09.827Z,72.27
2018-10-11T11:35:10.061Z,73.53
2018-10-11T11:36:10.292Z,73.33
2018-10-11T11:37:10.526Z,74.01
2018-10-11T11:38:10.759Z,71.79
2018-10-11T11:39:10.993Z,71.50
2018-10-11T11:40:11.223Z,70.83
2018-10-11T11:41:11.453Z,71.50
2018-10-11T11:42:11.683Z,70.44
2018-10-11T11:43:11.915Z,71.50
2018-10-11T11:44:12.149Z,70.92
2018-10-11T11:45:12.382Z,68.99
2018-10-11T11:46:12.612Z,70.44
2018-10-11T11:47:12.843Z,71.31
2018-10-11T11:48:13.075Z,69.57
2018-10-11T11:49:13.309Z,71.25
2018-10-11T11:50:13.543Z,70.73
2018-10-11T11:51:13.773Z,71.54
2018-10-11T11:52:14.044Z,70.09
2018-10-11T11:53:14.377Z,71.06
2018-10-11T11:54:14.477Z,70.19
2018-10-11T11:55:14.708Z,70.38
2018-10-11T11:56:14.940Z,69.61
2018-10-11T11:57:15.171Z,68.65
2018-10-11T11:58:15.407Z,67.78
2018-10-11T11:59:15.699Z,70.28
2018-10-11T12:00:15.868Z,69.84
2018-10-11T12:01:16.098Z,70.28
2018-10-11T12:02:16.426Z,69.13
2018-10-11T12:03:16.567Z,69.84
2018-10-11T12:04:16.799Z,69.71
2018-10-11T12:05:17.116Z,68.29
2018-10-11T12:06:17.265Z,67.04
2018-10-11T12:07:17.498Z,66.85
2018-10-11T12:08:17.729Z,66.82
2018-10-11T12:09:17.964Z,66.27
2018-10-11T12:10:18.250Z,66.85
2018-10-11T12:11:18.429Z,66.08
2018-10-11T12:12:18.663Z,65.59
2018-10-11T12:13:18.902Z,65.59
2018-10-11T12:14:19.130Z,65.69
2018-10-11T12:15:19.362Z,68.77
2018-10-11T12:16:19.593Z,69.74
2018-10-11T12:17:19.829Z,69.45
2018-10-11T12:18:20.064Z,71.28
2018-10-11T12:19:20.307Z,69.74
2018-10-11T12:20:20.533Z,66.85
2018-10-11T12:21:20.766Z,66.40
2018-10-11T12:22:20.999Z,66.27
2018-10-11T12:23:21.233Z,66.27
2018-10-11T12:24:21.464Z,66.30
2018-10-11T12:25:21.697Z,66.36
2018-10-11T12:26:22.000Z,66.17
2018-10-11T12:27:22.166Z,65.82
2018-10-11T12:28:22.477Z,66.40
2018-10-11T12:29:22.632Z,66.88
2018-10-11T12:30:22.865Z,65.69
2018-10-11T12:31:23.101Z,65.91
2018-10-11T12:32:23.333Z,66.20
2018-10-11T12:33:23.568Z,65.63
2018-10-11T12:34:23.805Z,65.63
2018-10-11T12:35:24.036Z,65.50
2018-10-11T12:36:24.330Z,64.95
2018-10-11T12:37:24.503Z,65.82
2018-10-11T12:38:24.737Z,64.76
2018-10-11T12:39:24.973Z,65.34
2018-10-11T12:40:25.205Z,65.53
2018-10-11T12:41:25.437Z,66.30
2018-10-11T12:42:25.712Z,66.20
2018-10-11T12:43:25.907Z,66.20
2018-10-11T12:44:26.138Z,65.72
2018-10-11T12:45:26.527Z,65.34
2018-10-11T12:46:26.607Z,65.14
2018-10-11T12:47:26.842Z,64.18
2018-10-11T12:48:27.074Z,64.76
2018-10-11T12:49:27.501Z,64.86
2018-10-11T12:50:27.541Z,65.63
2018-10-11T12:51:27.776Z,66.14
2018-10-11T12:52:28.059Z,67.17
2018-10-11T12:53:28.240Z,67.65
2018-10-11T12:54:28.472Z,66.69
2018-10-11T12:55:28.706Z,69.20